sensor_id;sensor_type;location;lat;lon;timestamp;P1;P2;P0
71858;PMS5003;59713;50.866;4.324;2023-01-16T00:00:43;4;2;
71858;PMS5003;59713;50.866;4.324;2023-01-16T00:01:44;4;2;
71858;PMS5003;59713;50.866;4.324;2023-01-16T00:02:43;2;0;
71858;PMS5003;59713;50.866;4.324;2023-01-16T00:03:45;2;0;
71858;PMS5003;59713;50.866;4.324;2023-01-16T00:03:45;2;0;
71858;PMS5003;59713;50.866;4.324;2023-01-16T00:04:43;2;0;
71858;PMS5003;59713;50.866;4.324;2023-01-16T00:05:44;1;1;
71858;PMS5003;59713;50.866;4.324;2023-01-16T00:06:43;1;1;
71858;PMS5003;59713;50.866;4.324;2023-01-16T00:07:43;1;1;
71858;PMS5003;59713;50.866;4.324;2023-01-16T00:08:43;5;2;
71858;PMS5003;59713;50.866;4.324;2023-01-16T00:09:43;5;2;
71858;PMS5003;59713;50.866;4.324;2023-01-16T00:10:43;5;2;
71858;PMS5003;59713;50.866;4.324;2023-01-16T00:11:44;3;1;
71858;PMS5003;59713;50.866;4.324;2023-01-16T00:12:46;3;1;
71858;PMS5003;59713;50.866;4.324;2023-01-16T00:12:46;3;1;
71858;PMS5003;59713;50.866;4.324;2023-01-16T00:13:43;3;1;
71858;PMS5003;59713;50.866;4.324;2023-01-16T00:14:44;1;1;
71858;PMS5003;59713;50.866;4.324;2023-01-16T00:15:44;1;1;
71858;PMS5003;59713;50.866;4.324;2023-01-16T00:16:44;1;1;
71858;PMS5003;59713;50.866;4.324;2023-01-16T00:17:44;3;1;
71858;PMS5003;59713;50.866;4.324;2023-01-16T00:18:44;3;1;
71858;PMS5003;59713;50.866;4.324;2023-01-16T00:19:43;3;1;
71858;PMS5003;59713;50.866;4.324;2023-01-16T00:20:44;0;0;
71858;PMS5003;59713;50.866;4.324;2023-01-16T00:21:44;0;0;
71858;PMS5003;59713;50.866;4.324;2023-01-16T00:21:44;0;0;
71858;PMS5003;59713;50.866;4.324;2023-01-16T00:22:44;0;0;
71858;PMS5003;59713;50.866;4.324;2023-01-16T00:23:44;1;1;
71858;PMS5003;59713;50.866;4.324;2023-01-16T00:24:44;1;1;
71858;PMS5003;59713;50.866;4.324;2023-01-16T00:25:44;1;1;
71858;PMS5003;59713;50.866;4.324;2023-01-16T00:26:44;2;2;
71858;PMS5003;59713;50.866;4.324;2023-01-16T00:27:44;2;2;
71858;PMS5003;59713;50.866;4.324;2023-01-16T00:28:43;2;2;
71858;PMS5003;59713;50.866;4.324;2023-01-16T00:29:44;1;1;
71858;PMS5003;59713;50.866;4.324;2023-01-16T00:30:44;1;1;
71858;PMS5003;59713;50.866;4.324;2023-01-16T00:31:44;1;1;
71858;PMS5003;59713;50.866;4.324;2023-01-16T00:31:44;1;1;
71858;PMS5003;59713;50.866;4.324;2023-01-16T00:32:44;1;1;
71858;PMS5003;59713;50.866;4.324;2023-01-16T00:33:44;1;1;
71858;PMS5003;59713;50.866;4.324;2023-01-16T00:34:44;1;1;
71858;PMS5003;59713;50.866;4.324;2023-01-16T00:35:44;2;2;
71858;PMS5003;59713;50.866;4.324;2023-01-16T00:36:44;2;2;
71858;PMS5003;59713;50.866;4.324;2023-01-16T00:37:44;2;2;
71858;PMS5003;59713;50.866;4.324;2023-01-16T00:38:44;2;0;
71858;PMS5003;59713;50.866;4.324;2023-01-16T00:39:44;2;0;
71858;PMS5003;59713;50.866;4.324;2023-01-16T00:40:44;2;0;
71858;PMS5003;59713;50.866;4.324;2023-01-16T00:40:44;2;0;
71858;PMS5003;59713;50.866;4.324;2023-01-16T00:41:44;1;1;
71858;PMS5003;59713;50.866;4.324;2023-01-16T00:42:44;1;1;
71858;PMS5003;59713;50.866;4.324;2023-01-16T00:43:44;1;1;
71858;PMS5003;59713;50.866;4.324;2023-01-16T00:44:44;2;2;
71858;PMS5003;59713;50.866;4.324;2023-01-16T00:45:44;2;2;
71858;PMS5003;59713;50.866;4.324;2023-01-16T00:46:44;2;2;
71858;PMS5003;59713;50.866;4.324;2023-01-16T00:47:44;1;1;
71858;PMS5003;59713;50.866;4.324;2023-01-16T00:48:44;1;1;
71858;PMS5003;59713;50.866;4.324;2023-01-16T00:49:44;1;1;
71858;PMS5003;59713;50.866;4.324;2023-01-16T00:50:44;0;0;
71858;PMS5003;59713;50.866;4.324;2023-01-16T00:51:44;0;0;
71858;PMS5003;59713;50.866;4.324;2023-01-16T00:52:44;0;0;
71858;PMS5003;59713;50.866;4.324;2023-01-16T00:53:44;4;1;
71858;PMS5003;59713;50.866;4.324;2023-01-16T00:54:44;4;1;
71858;PMS5003;59713;50.866;4.324;2023-01-16T00:55:44;4;1;
71858;PMS5003;59713;50.866;4.324;2023-01-16T00:56:44;1;1;
71858;PMS5003;59713;50.866;4.324;2023-01-16T00:57:44;1;1;
71858;PMS5003;59713;50.866;4.324;2023-01-16T00:58:44;1;1;
71858;PMS5003;59713;50.866;4.324;2023-01-16T00:59:44;2;2;
71858;PMS5003;59713;50.866;4.324;2023-01-16T00:59:44;2;2;
71858;PMS5003;59713;50.866;4.324;2023-01-16T01:00:44;2;2;
71858;PMS5003;59713;50.866;4.324;2023-01-16T01:01:44;2;2;
71858;PMS5003;59713;50.866;4.324;2023-01-16T01:02:44;3;2;
71858;PMS5003;59713;50.866;4.324;2023-01-16T01:03:44;3;2;
71858;PMS5003;59713;50.866;4.324;2023-01-16T01:04:44;3;2;
71858;PMS5003;59713;50.866;4.324;2023-01-16T01:05:44;1;1;
71858;PMS5003;59713;50.866;4.324;2023-01-16T01:06:44;1;1;
71858;PMS5003;59713;50.866;4.324;2023-01-16T01:07:44;1;1;
71858;PMS5003;59713;50.866;4.324;2023-01-16T01:08:44;1;1;
71858;PMS5003;59713;50.866;4.324;2023-01-16T01:08:44;1;1;
71858;PMS5003;59713;50.866;4.324;2023-01-16T01:09:44;1;1;
71858;PMS5003;59713;50.866;4.324;2023-01-16T01:10:44;1;1;
71858;PMS5003;59713;50.866;4.324;2023-01-16T01:11:44;2;0;
71858;PMS5003;59713;50.866;4.324;2023-01-16T01:12:44;2;0;
71858;PMS5003;59713;50.866;4.324;2023-01-16T01:13:44;2;0;
71858;PMS5003;59713;50.866;4.324;2023-01-16T01:14:44;3;1;
71858;PMS5003;59713;50.866;4.324;2023-01-16T01:15:44;3;1;
71858;PMS5003;59713;50.866;4.324;2023-01-16T01:16:44;3;1;
71858;PMS5003;59713;50.866;4.324;2023-01-16T01:17:44;2;2;
71858;PMS5003;59713;50.866;4.324;2023-01-16T01:17:44;2;2;
71858;PMS5003;59713;50.866;4.324;2023-01-16T01:18:44;2;2;
71858;PMS5003;59713;50.866;4.324;2023-01-16T01:19:44;2;2;
71858;PMS5003;59713;50.866;4.324;2023-01-16T01:20:44;0;0;
71858;PMS5003;59713;50.866;4.324;2023-01-16T01:21:44;0;0;
71858;PMS5003;59713;50.866;4.324;2023-01-16T01:22:44;0;0;
71858;PMS5003;59713;50.866;4.324;2023-01-16T01:23:44;1;1;
71858;PMS5003;59713;50.866;4.324;2023-01-16T01:24:46;1;1;
71858;PMS5003;59713;50.866;4.324;2023-01-16T01:25:44;1;1;
71858;PMS5003;59713;50.866;4.324;2023-01-16T01:26:44;3;1;
71858;PMS5003;59713;50.866;4.324;2023-01-16T01:26:44;3;1;
71858;PMS5003;59713;50.866;4.324;2023-01-16T01:27:44;3;1;
71858;PMS5003;59713;50.866;4.324;2023-01-16T01:28:44;3;1;
71858;PMS5003;59713;50.866;4.324;2023-01-16T01:29:44;8;5;
71858;PMS5003;59713;50.866;4.324;2023-01-16T01:30:44;8;5;
71858;PMS5003;59713;50.866;4.324;2023-01-16T01:31:44;8;5;
71858;PMS5003;59713;50.866;4.324;2023-01-16T01:32:44;5;2;
71858;PMS5003;59713;50.866;4.324;2023-01-16T01:33:44;5;2;
71858;PMS5003;59713;50.866;4.324;2023-01-16T01:34:44;5;2;
71858;PMS5003;59713;50.866;4.324;2023-01-16T01:35:44;3;1;
71858;PMS5003;59713;50.866;4.324;2023-01-16T01:35:44;3;1;
71858;PMS5003;59713;50.866;4.324;2023-01-16T01:36:44;3;1;
71858;PMS5003;59713;50.866;4.324;2023-01-16T01:37:44;3;1;
71858;PMS5003;59713;50.866;4.324;2023-01-16T01:38:44;4;3;
71858;PMS5003;59713;50.866;4.324;2023-01-16T01:39:44;4;3;
71858;PMS5003;59713;50.866;4.324;2023-01-16T01:40:44;4;3;
71858;PMS5003;59713;50.866;4.324;2023-01-16T01:41:44;4;4;
71858;PMS5003;59713;50.866;4.324;2023-01-16T01:42:44;4;4;
71858;PMS5003;59713;50.866;4.324;2023-01-16T01:43:45;4;4;
71858;PMS5003;59713;50.866;4.324;2023-01-16T01:44:47;5;2;
71858;PMS5003;59713;50.866;4.324;2023-01-16T01:45:45;5;2;
71858;PMS5003;59713;50.866;4.324;2023-01-16T01:45:45;5;2;
71858;PMS5003;59713;50.866;4.324;2023-01-16T01:46:44;5;2;
71858;PMS5003;59713;50.866;4.324;2023-01-16T01:47:45;4;3;
71858;PMS5003;59713;50.866;4.324;2023-01-16T01:48:44;4;3;
71858;PMS5003;59713;50.866;4.324;2023-01-16T01:49:44;4;3;
71858;PMS5003;59713;50.866;4.324;2023-01-16T01:50:45;5;2;
71858;PMS5003;59713;50.866;4.324;2023-01-16T01:51:44;5;2;
71858;PMS5003;59713;50.866;4.324;2023-01-16T01:52:44;5;2;
71858;PMS5003;59713;50.866;4.324;2023-01-16T01:53:44;2;2;
71858;PMS5003;59713;50.866;4.324;2023-01-16T01:54:45;2;2;
71858;PMS5003;59713;50.866;4.324;2023-01-16T01:54:45;2;2;
71858;PMS5003;59713;50.866;4.324;2023-01-16T01:55:44;2;2;
71858;PMS5003;59713;50.866;4.324;2023-01-16T01:56:44;9;4;
71858;PMS5003;59713;50.866;4.324;2023-01-16T01:57:44;9;4;
71858;PMS5003;59713;50.866;4.324;2023-01-16T01:58:44;9;4;
71858;PMS5003;59713;50.866;4.324;2023-01-16T01:59:44;3;2;
71858;PMS5003;59713;50.866;4.324;2023-01-16T02:00:44;3;2;
71858;PMS5003;59713;50.866;4.324;2023-01-16T02:01:44;3;2;
71858;PMS5003;59713;50.866;4.324;2023-01-16T02:02:45;6;3;
71858;PMS5003;59713;50.866;4.324;2023-01-16T02:03:46;6;3;
71858;PMS5003;59713;50.866;4.324;2023-01-16T02:03:46;6;3;
71858;PMS5003;59713;50.866;4.324;2023-01-16T02:04:44;6;3;
71858;PMS5003;59713;50.866;4.324;2023-01-16T02:05:44;4;2;
71858;PMS5003;59713;50.866;4.324;2023-01-16T02:06:44;4;2;
71858;PMS5003;59713;50.866;4.324;2023-01-16T02:07:44;4;2;
71858;PMS5003;59713;50.866;4.324;2023-01-16T02:08:44;2;2;
71858;PMS5003;59713;50.866;4.324;2023-01-16T02:09:44;2;2;
71858;PMS5003;59713;50.866;4.324;2023-01-16T02:10:45;2;2;
71858;PMS5003;59713;50.866;4.324;2023-01-16T02:11:45;5;3;
71858;PMS5003;59713;50.866;4.324;2023-01-16T02:12:44;5;3;
71858;PMS5003;59713;50.866;4.324;2023-01-16T02:12:44;5;3;
71858;PMS5003;59713;50.866;4.324;2023-01-16T02:13:44;5;3;
71858;PMS5003;59713;50.866;4.324;2023-01-16T02:14:45;6;3;
71858;PMS5003;59713;50.866;4.324;2023-01-16T02:15:44;6;3;
71858;PMS5003;59713;50.866;4.324;2023-01-16T02:16:44;6;3;
71858;PMS5003;59713;50.866;4.324;2023-01-16T02:17:45;5;3;
71858;PMS5003;59713;50.866;4.324;2023-01-16T02:18:44;5;3;
71858;PMS5003;59713;50.866;4.324;2023-01-16T02:19:47;5;3;
71858;PMS5003;59713;50.866;4.324;2023-01-16T02:20:46;2;0;
71858;PMS5003;59713;50.866;4.324;2023-01-16T02:21:51;2;0;
71858;PMS5003;59713;50.866;4.324;2023-01-16T02:22:56;2;0;
71858;PMS5003;59713;50.866;4.324;2023-01-16T02:23:59;2;2;
71858;PMS5003;59713;50.866;4.324;2023-01-16T02:24:49;2;2;
71858;PMS5003;59713;50.866;4.324;2023-01-16T02:26:51;1;1;
71858;PMS5003;59713;50.866;4.324;2023-01-16T02:27:50;1;1;
71858;PMS5003;59713;50.866;4.324;2023-01-16T02:28:50;1;1;
71858;PMS5003;59713;50.866;4.324;2023-01-16T02:30:01;5;3;
71858;PMS5003;59713;50.866;4.324;2023-01-16T02:30:50;5;3;
71858;PMS5003;59713;50.866;4.324;2023-01-16T02:30:52;5;3;
71858;PMS5003;59713;50.866;4.324;2023-01-16T02:31:46;5;3;
71858;PMS5003;59713;50.866;4.324;2023-01-16T02:32:47;3;1;
71858;PMS5003;59713;50.866;4.324;2023-01-16T02:33:48;3;1;
71858;PMS5003;59713;50.866;4.324;2023-01-16T02:34:48;3;1;
71858;PMS5003;59713;50.866;4.324;2023-01-16T02:35:49;5;3;
71858;PMS5003;59713;50.866;4.324;2023-01-16T02:36:45;5;3;
71858;PMS5003;59713;50.866;4.324;2023-01-16T02:37:45;5;3;
71858;PMS5003;59713;50.866;4.324;2023-01-16T02:38:47;1;1;
71858;PMS5003;59713;50.866;4.324;2023-01-16T02:39:45;1;1;
71858;PMS5003;59713;50.866;4.324;2023-01-16T02:39:45;1;1;
71858;PMS5003;59713;50.866;4.324;2023-01-16T02:40:47;1;1;
71858;PMS5003;59713;50.866;4.324;2023-01-16T02:41:45;4;2;
71858;PMS5003;59713;50.866;4.324;2023-01-16T02:42:45;4;2;
71858;PMS5003;59713;50.866;4.324;2023-01-16T02:43:46;4;2;
71858;PMS5003;59713;50.866;4.324;2023-01-16T02:44:46;4;3;
71858;PMS5003;59713;50.866;4.324;2023-01-16T02:45:46;4;3;
71858;PMS5003;59713;50.866;4.324;2023-01-16T02:46:45;4;3;
71858;PMS5003;59713;50.866;4.324;2023-01-16T02:47:44;3;1;
71858;PMS5003;59713;50.866;4.324;2023-01-16T02:48:47;3;1;
71858;PMS5003;59713;50.866;4.324;2023-01-16T02:49:46;3;1;
71858;PMS5003;59713;50.866;4.324;2023-01-16T02:49:46;3;1;
71858;PMS5003;59713;50.866;4.324;2023-01-16T02:50:46;2;2;
71858;PMS5003;59713;50.866;4.324;2023-01-16T02:51:45;2;2;
71858;PMS5003;59713;50.866;4.324;2023-01-16T02:52:44;2;2;
71858;PMS5003;59713;50.866;4.324;2023-01-16T02:53:46;2;2;
71858;PMS5003;59713;50.866;4.324;2023-01-16T02:54:46;2;2;
71858;PMS5003;59713;50.866;4.324;2023-01-16T02:55:45;2;2;
71858;PMS5003;59713;50.866;4.324;2023-01-16T02:56:47;1;1;
71858;PMS5003;59713;50.866;4.324;2023-01-16T02:57:45;1;1;
71858;PMS5003;59713;50.866;4.324;2023-01-16T02:58:45;1;1;
71858;PMS5003;59713;50.866;4.324;2023-01-16T02:58:45;1;1;
71858;PMS5003;59713;50.866;4.324;2023-01-16T02:59:44;4;2;
71858;PMS5003;59713;50.866;4.324;2023-01-16T03:00:52;4;2;
71858;PMS5003;59713;50.866;4.324;2023-01-16T03:01:49;4;2;
71858;PMS5003;59713;50.866;4.324;2023-01-16T03:02:44;3;2;
71858;PMS5003;59713;50.866;4.324;2023-01-16T03:03:46;3;2;
71858;PMS5003;59713;50.866;4.324;2023-01-16T03:04:45;3;2;
71858;PMS5003;59713;50.866;4.324;2023-01-16T03:05:45;3;1;
71858;PMS5003;59713;50.866;4.324;2023-01-16T03:06:44;3;1;
71858;PMS5003;59713;50.866;4.324;2023-01-16T03:07:47;3;1;
71858;PMS5003;59713;50.866;4.324;2023-01-16T03:08:45;1;1;
71858;PMS5003;59713;50.866;4.324;2023-01-16T03:08:45;1;1;
71858;PMS5003;59713;50.866;4.324;2023-01-16T03:09:45;1;1;
71858;PMS5003;59713;50.866;4.324;2023-01-16T03:10:56;1;1;
71858;PMS5003;59713;50.866;4.324;2023-01-16T03:11:47;2;2;
71858;PMS5003;59713;50.866;4.324;2023-01-16T03:12:46;2;2;
71858;PMS5003;59713;50.866;4.324;2023-01-16T03:13:48;2;2;
71858;PMS5003;59713;50.866;4.324;2023-01-16T03:14:46;1;1;
71858;PMS5003;59713;50.866;4.324;2023-01-16T03:15:44;1;1;
71858;PMS5003;59713;50.866;4.324;2023-01-16T03:16:47;1;1;
71858;PMS5003;59713;50.866;4.324;2023-01-16T03:17:45;1;1;
71858;PMS5003;59713;50.866;4.324;2023-01-16T03:17:45;1;1;
71858;PMS5003;59713;50.866;4.324;2023-01-16T03:18:46;1;1;
71858;PMS5003;59713;50.866;4.324;2023-01-16T03:19:49;1;1;
71858;PMS5003;59713;50.866;4.324;2023-01-16T03:20:48;2;1;
71858;PMS5003;59713;50.866;4.324;2023-01-16T03:21:48;2;1;
71858;PMS5003;59713;50.866;4.324;2023-01-16T03:22:45;2;1;
71858;PMS5003;59713;50.866;4.324;2023-01-16T03:23:47;1;1;
71858;PMS5003;59713;50.866;4.324;2023-01-16T03:24:48;1;1;
71858;PMS5003;59713;50.866;4.324;2023-01-16T03:25:45;1;1;
71858;PMS5003;59713;50.866;4.324;2023-01-16T03:26:45;3;1;
71858;PMS5003;59713;50.866;4.324;2023-01-16T03:27:44;3;1;
71858;PMS5003;59713;50.866;4.324;2023-01-16T03:28:46;3;1;
71858;PMS5003;59713;50.866;4.324;2023-01-16T03:29:45;1;1;
71858;PMS5003;59713;50.866;4.324;2023-01-16T03:30:47;1;1;
71858;PMS5003;59713;50.866;4.324;2023-01-16T03:31:45;1;1;
71858;PMS5003;59713;50.866;4.324;2023-01-16T03:32:45;1;0;
71858;PMS5003;59713;50.866;4.324;2023-01-16T03:33:45;1;0;
71858;PMS5003;59713;50.866;4.324;2023-01-16T03:34:45;1;0;
71858;PMS5003;59713;50.866;4.324;2023-01-16T03:35:45;0;0;
71858;PMS5003;59713;50.866;4.324;2023-01-16T03:36:45;0;0;
71858;PMS5003;59713;50.866;4.324;2023-01-16T03:36:45;0;0;
71858;PMS5003;59713;50.866;4.324;2023-01-16T03:37:45;0;0;
71858;PMS5003;59713;50.866;4.324;2023-01-16T03:38:45;1;1;
71858;PMS5003;59713;50.866;4.324;2023-01-16T03:39:45;1;1;
71858;PMS5003;59713;50.866;4.324;2023-01-16T03:40:44;1;1;
71858;PMS5003;59713;50.866;4.324;2023-01-16T03:41:44;4;1;
71858;PMS5003;59713;50.866;4.324;2023-01-16T03:42:45;4;1;
71858;PMS5003;59713;50.866;4.324;2023-01-16T03:43:44;4;1;
71858;PMS5003;59713;50.866;4.324;2023-01-16T03:44:46;2;0;
71858;PMS5003;59713;50.866;4.324;2023-01-16T03:45:44;2;0;
71858;PMS5003;59713;50.866;4.324;2023-01-16T03:45:44;2;0;
71858;PMS5003;59713;50.866;4.324;2023-01-16T03:46:46;2;0;
71858;PMS5003;59713;50.866;4.324;2023-01-16T03:47:45;1;1;
71858;PMS5003;59713;50.866;4.324;2023-01-16T03:48:45;1;1;
71858;PMS5003;59713;50.866;4.324;2023-01-16T03:49:45;1;1;
71858;PMS5003;59713;50.866;4.324;2023-01-16T03:50:47;3;2;
71858;PMS5003;59713;50.866;4.324;2023-01-16T03:51:44;3;2;
71858;PMS5003;59713;50.866;4.324;2023-01-16T03:52:45;3;2;
71858;PMS5003;59713;50.866;4.324;2023-01-16T03:53:45;3;2;
71858;PMS5003;59713;50.866;4.324;2023-01-16T03:54:45;3;2;
71858;PMS5003;59713;50.866;4.324;2023-01-16T03:55:45;3;2;
71858;PMS5003;59713;50.866;4.324;2023-01-16T03:55:45;3;2;
71858;PMS5003;59713;50.866;4.324;2023-01-16T03:56:45;4;1;
71858;PMS5003;59713;50.866;4.324;2023-01-16T03:57:45;4;1;
71858;PMS5003;59713;50.866;4.324;2023-01-16T03:58:44;4;1;
71858;PMS5003;59713;50.866;4.324;2023-01-16T03:59:44;1;1;
71858;PMS5003;59713;50.866;4.324;2023-01-16T04:00:46;1;1;
71858;PMS5003;59713;50.866;4.324;2023-01-16T04:01:45;1;1;
71858;PMS5003;59713;50.866;4.324;2023-01-16T04:02:46;0;0;
71858;PMS5003;59713;50.866;4.324;2023-01-16T04:03:45;0;0;
71858;PMS5003;59713;50.866;4.324;2023-01-16T04:04:44;0;0;
71858;PMS5003;59713;50.866;4.324;2023-01-16T04:05:46;3;2;
71858;PMS5003;59713;50.866;4.324;2023-01-16T04:06:45;3;2;
71858;PMS5003;59713;50.866;4.324;2023-01-16T04:07:44;3;2;
71858;PMS5003;59713;50.866;4.324;2023-01-16T04:08:44;1;1;
71858;PMS5003;59713;50.866;4.324;2023-01-16T04:09:45;1;1;
71858;PMS5003;59713;50.866;4.324;2023-01-16T04:10:45;1;1;
71858;PMS5003;59713;50.866;4.324;2023-01-16T04:11:44;1;1;
71858;PMS5003;59713;50.866;4.324;2023-01-16T04:12:45;1;1;
71858;PMS5003;59713;50.866;4.324;2023-01-16T04:13:44;1;1;
71858;PMS5003;59713;50.866;4.324;2023-01-16T04:13:44;1;1;
71858;PMS5003;59713;50.866;4.324;2023-01-16T04:14:44;1;0;
71858;PMS5003;59713;50.866;4.324;2023-01-16T04:15:45;1;0;
71858;PMS5003;59713;50.866;4.324;2023-01-16T04:16:44;1;0;
71858;PMS5003;59713;50.866;4.324;2023-01-16T04:17:44;2;1;
71858;PMS5003;59713;50.866;4.324;2023-01-16T04:18:44;2;1;
71858;PMS5003;59713;50.866;4.324;2023-01-16T04:19:44;2;1;
71858;PMS5003;59713;50.866;4.324;2023-01-16T04:20:45;2;1;
71858;PMS5003;59713;50.866;4.324;2023-01-16T04:21:44;2;1;
71858;PMS5003;59713;50.866;4.324;2023-01-16T04:22:46;2;1;
71858;PMS5003;59713;50.866;4.324;2023-01-16T04:23:44;4;1;
71858;PMS5003;59713;50.866;4.324;2023-01-16T04:24:44;4;1;
71858;PMS5003;59713;50.866;4.324;2023-01-16T04:25:44;4;1;
71858;PMS5003;59713;50.866;4.324;2023-01-16T04:26:44;2;0;
71858;PMS5003;59713;50.866;4.324;2023-01-16T04:27:44;2;0;
71858;PMS5003;59713;50.866;4.324;2023-01-16T04:28:44;2;0;
71858;PMS5003;59713;50.866;4.324;2023-01-16T04:29:44;0;0;
71858;PMS5003;59713;50.866;4.324;2023-01-16T04:30:44;0;0;
71858;PMS5003;59713;50.866;4.324;2023-01-16T04:31:44;0;0;
71858;PMS5003;59713;50.866;4.324;2023-01-16T04:32:44;1;1;
71858;PMS5003;59713;50.866;4.324;2023-01-16T04:32:44;1;1;
71858;PMS5003;59713;50.866;4.324;2023-01-16T04:33:44;1;1;
71858;PMS5003;59713;50.866;4.324;2023-01-16T04:34:44;1;1;
71858;PMS5003;59713;50.866;4.324;2023-01-16T04:35:44;3;2;
71858;PMS5003;59713;50.866;4.324;2023-01-16T04:36:44;3;2;
71858;PMS5003;59713;50.866;4.324;2023-01-16T04:37:45;3;2;
71858;PMS5003;59713;50.866;4.324;2023-01-16T04:38:44;6;4;
71858;PMS5003;59713;50.866;4.324;2023-01-16T04:39:44;6;4;
71858;PMS5003;59713;50.866;4.324;2023-01-16T04:40:44;6;4;
71858;PMS5003;59713;50.866;4.324;2023-01-16T04:41:44;1;1;
71858;PMS5003;59713;50.866;4.324;2023-01-16T04:42:44;1;1;
71858;PMS5003;59713;50.866;4.324;2023-01-16T04:42:44;1;1;
71858;PMS5003;59713;50.866;4.324;2023-01-16T04:43:44;1;1;
71858;PMS5003;59713;50.866;4.324;2023-01-16T04:44:44;1;1;
71858;PMS5003;59713;50.866;4.324;2023-01-16T04:45:45;1;1;
71858;PMS5003;59713;50.866;4.324;2023-01-16T04:46:44;1;1;
71858;PMS5003;59713;50.866;4.324;2023-01-16T04:47:44;2;0;
71858;PMS5003;59713;50.866;4.324;2023-01-16T04:48:44;2;0;
71858;PMS5003;59713;50.866;4.324;2023-01-16T04:49:44;2;0;
71858;PMS5003;59713;50.866;4.324;2023-01-16T04:50:46;1;0;
71858;PMS5003;59713;50.866;4.324;2023-01-16T04:51:45;1;0;
71858;PMS5003;59713;50.866;4.324;2023-01-16T04:51:45;1;0;
71858;PMS5003;59713;50.866;4.324;2023-01-16T04:52:44;1;0;
71858;PMS5003;59713;50.866;4.324;2023-01-16T04:53:44;0;0;
71858;PMS5003;59713;50.866;4.324;2023-01-16T04:54:44;0;0;
71858;PMS5003;59713;50.866;4.324;2023-01-16T04:55:44;0;0;
71858;PMS5003;59713;50.866;4.324;2023-01-16T04:56:44;0;0;
71858;PMS5003;59713;50.866;4.324;2023-01-16T04:57:44;0;0;
71858;PMS5003;59713;50.866;4.324;2023-01-16T04:58:44;0;0;
71858;PMS5003;59713;50.866;4.324;2023-01-16T04:59:44;0;0;
71858;PMS5003;59713;50.866;4.324;2023-01-16T05:00:44;0;0;
71858;PMS5003;59713;50.866;4.324;2023-01-16T05:01:44;0;0;
71858;PMS5003;59713;50.866;4.324;2023-01-16T05:01:44;0;0;
71858;PMS5003;59713;50.866;4.324;2023-01-16T05:02:44;2;2;
71858;PMS5003;59713;50.866;4.324;2023-01-16T05:03:44;2;2;
71858;PMS5003;59713;50.866;4.324;2023-01-16T05:04:45;2;2;
71858;PMS5003;59713;50.866;4.324;2023-01-16T05:05:44;2;1;
71858;PMS5003;59713;50.866;4.324;2023-01-16T05:06:44;2;1;
71858;PMS5003;59713;50.866;4.324;2023-01-16T05:07:44;2;1;
71858;PMS5003;59713;50.866;4.324;2023-01-16T05:08:44;1;1;
71858;PMS5003;59713;50.866;4.324;2023-01-16T05:09:44;1;1;
71858;PMS5003;59713;50.866;4.324;2023-01-16T05:10:44;1;1;
71858;PMS5003;59713;50.866;4.324;2023-01-16T05:10:44;1;1;
71858;PMS5003;59713;50.866;4.324;2023-01-16T05:11:44;1;0;
71858;PMS5003;59713;50.866;4.324;2023-01-16T05:12:44;1;0;
71858;PMS5003;59713;50.866;4.324;2023-01-16T05:13:44;1;0;
71858;PMS5003;59713;50.866;4.324;2023-01-16T05:14:44;5;2;
71858;PMS5003;59713;50.866;4.324;2023-01-16T05:15:44;5;2;
71858;PMS5003;59713;50.866;4.324;2023-01-16T05:16:44;5;2;
71858;PMS5003;59713;50.866;4.324;2023-01-16T05:17:45;7;2;
71858;PMS5003;59713;50.866;4.324;2023-01-16T05:18:44;7;2;
71858;PMS5003;59713;50.866;4.324;2023-01-16T05:19:55;7;2;
71858;PMS5003;59713;50.866;4.324;2023-01-16T05:20:44;2;1;
71858;PMS5003;59713;50.866;4.324;2023-01-16T05:20:44;2;1;
71858;PMS5003;59713;50.866;4.324;2023-01-16T05:21:44;2;1;
71858;PMS5003;59713;50.866;4.324;2023-01-16T05:22:46;2;1;
71858;PMS5003;59713;50.866;4.324;2023-01-16T05:23:44;2;2;
71858;PMS5003;59713;50.866;4.324;2023-01-16T05:24:44;2;2;
71858;PMS5003;59713;50.866;4.324;2023-01-16T05:25:44;2;2;
71858;PMS5003;59713;50.866;4.324;2023-01-16T05:26:44;3;0;
71858;PMS5003;59713;50.866;4.324;2023-01-16T05:27:48;3;0;
71858;PMS5003;59713;50.866;4.324;2023-01-16T05:28:44;3;0;
71858;PMS5003;59713;50.866;4.324;2023-01-16T05:29:44;4;4;
71858;PMS5003;59713;50.866;4.324;2023-01-16T05:30:44;4;4;
71858;PMS5003;59713;50.866;4.324;2023-01-16T05:30:44;4;4;
71858;PMS5003;59713;50.866;4.324;2023-01-16T05:31:44;4;4;
71858;PMS5003;59713;50.866;4.324;2023-01-16T05:32:44;1;1;
71858;PMS5003;59713;50.866;4.324;2023-01-16T05:33:44;1;1;
71858;PMS5003;59713;50.866;4.324;2023-01-16T05:34:44;1;1;
71858;PMS5003;59713;50.866;4.324;2023-01-16T05:35:44;1;1;
71858;PMS5003;59713;50.866;4.324;2023-01-16T05:36:44;1;1;
71858;PMS5003;59713;50.866;4.324;2023-01-16T05:37:44;1;1;
71858;PMS5003;59713;50.866;4.324;2023-01-16T05:38:47;3;0;
71858;PMS5003;59713;50.866;4.324;2023-01-16T05:39:44;3;0;
71858;PMS5003;59713;50.866;4.324;2023-01-16T05:39:44;3;0;
71858;PMS5003;59713;50.866;4.324;2023-01-16T05:40:44;3;0;
71858;PMS5003;59713;50.866;4.324;2023-01-16T05:41:44;1;1;
71858;PMS5003;59713;50.866;4.324;2023-01-16T05:42:44;1;1;
71858;PMS5003;59713;50.866;4.324;2023-01-16T05:43:44;1;1;
71858;PMS5003;59713;50.866;4.324;2023-01-16T05:44:44;3;1;
71858;PMS5003;59713;50.866;4.324;2023-01-16T05:46:44;3;1;
71858;PMS5003;59713;50.866;4.324;2023-01-16T05:47:44;2;0;
71858;PMS5003;59713;50.866;4.324;2023-01-16T05:48:44;2;0;
71858;PMS5003;59713;50.866;4.324;2023-01-16T05:49:44;2;0;
71858;PMS5003;59713;50.866;4.324;2023-01-16T05:49:44;2;0;
71858;PMS5003;59713;50.866;4.324;2023-01-16T05:50:44;0;0;
71858;PMS5003;59713;50.866;4.324;2023-01-16T05:51:44;0;0;
71858;PMS5003;59713;50.866;4.324;2023-01-16T05:52:44;0;0;
71858;PMS5003;59713;50.866;4.324;2023-01-16T05:53:48;0;0;
71858;PMS5003;59713;50.866;4.324;2023-01-16T05:54:44;0;0;
71858;PMS5003;59713;50.866;4.324;2023-01-16T05:55:45;0;0;
71858;PMS5003;59713;50.866;4.324;2023-01-16T05:56:44;0;0;
71858;PMS5003;59713;50.866;4.324;2023-01-16T05:57:44;0;0;
71858;PMS5003;59713;50.866;4.324;2023-01-16T05:58:44;0;0;
71858;PMS5003;59713;50.866;4.324;2023-01-16T05:58:44;0;0;
71858;PMS5003;59713;50.866;4.324;2023-01-16T05:59:46;0;0;
71858;PMS5003;59713;50.866;4.324;2023-01-16T06:00:44;0;0;
71858;PMS5003;59713;50.866;4.324;2023-01-16T06:01:44;0;0;
71858;PMS5003;59713;50.866;4.324;2023-01-16T06:02:44;0;0;
71858;PMS5003;59713;50.866;4.324;2023-01-16T06:03:44;0;0;
71858;PMS5003;59713;50.866;4.324;2023-01-16T06:04:44;0;0;
71858;PMS5003;59713;50.866;4.324;2023-01-16T06:05:44;1;1;
71858;PMS5003;59713;50.866;4.324;2023-01-16T06:06:45;1;1;
71858;PMS5003;59713;50.866;4.324;2023-01-16T06:07:44;1;1;
71858;PMS5003;59713;50.866;4.324;2023-01-16T06:08:45;3;1;
71858;PMS5003;59713;50.866;4.324;2023-01-16T06:09:44;3;1;
71858;PMS5003;59713;50.866;4.324;2023-01-16T06:10:44;3;1;
71858;PMS5003;59713;50.866;4.324;2023-01-16T06:11:44;1;1;
71858;PMS5003;59713;50.866;4.324;2023-01-16T06:12:44;1;1;
71858;PMS5003;59713;50.866;4.324;2023-01-16T06:13:45;1;1;
71858;PMS5003;59713;50.866;4.324;2023-01-16T06:14:44;0;0;
71858;PMS5003;59713;50.866;4.324;2023-01-16T06:15:45;0;0;
71858;PMS5003;59713;50.866;4.324;2023-01-16T06:16:44;0;0;
71858;PMS5003;59713;50.866;4.324;2023-01-16T06:17:44;0;0;
71858;PMS5003;59713;50.866;4.324;2023-01-16T06:17:44;0;0;
71858;PMS5003;59713;50.866;4.324;2023-01-16T06:18:44;0;0;